createdAt,value
2019-02-05T00:01:41.028Z,15.00
2019-02-05T00:04:10.661Z,15.50
2019-02-05T00:06:40.370Z,15.67
2019-02-05T00:09:11.338Z,15.17
2019-02-05T00:11:41.022Z,15.20
2019-02-05T00:14:10.629Z,15.47
2019-02-05T00:16:40.636Z,14.90
2019-02-05T00:19:10.172Z,15.00
2019-02-05T00:21:39.776Z,14.97
2019-02-05T00:24:09.359Z,14.40
2019-02-05T00:26:39.012Z,14.20
2019-02-05T00:29:08.544Z,13.27
2019-02-05T00:31:38.480Z,13.40
2019-02-05T00:34:08.098Z,14.30
2019-02-05T00:36:37.709Z,12.93
2019-02-05T00:39:09.082Z,13.00
2019-02-05T00:41:38.788Z,14.77
2019-02-05T00:44:08.465Z,14.53
2019-02-05T00:46:38.108Z,14.10
2019-02-05T00:49:07.798Z,13.43
2019-02-05T00:51:37.344Z,12.70
2019-02-05T00:54:07.047Z,13.20
2019-02-05T00:56:36.819Z,15.40
2019-02-05T00:59:06.801Z,14.20
2019-02-05T01:01:36.483Z,13.57
2019-02-05T01:04:06.293Z,14.10
2019-02-05T01:06:35.970Z,12.97
2019-02-05T01:09:07.720Z,13.73
2019-02-05T01:11:37.446Z,12.90
2019-02-05T01:14:07.351Z,13.83
2019-02-05T01:16:37.557Z,14.70
2019-02-05T01:19:07.187Z,15.93
2019-02-05T01:21:36.885Z,14.30
2019-02-05T01:24:06.505Z,14.13
2019-02-05T01:26:36.049Z,13.57
2019-02-05T01:29:05.643Z,13.90
2019-02-05T01:31:35.319Z,14.67
2019-02-05T01:34:05.064Z,13.60
2019-02-05T01:36:34.805Z,14.40
2019-02-05T01:39:05.760Z,14.77
2019-02-05T01:41:35.801Z,13.87
2019-02-05T01:44:05.374Z,12.43
2019-02-05T01:46:34.895Z,13.43
2019-02-05T01:49:04.550Z,13.20
2019-02-05T01:51:34.227Z,13.63
2019-02-05T01:54:03.897Z,13.87
2019-02-05T01:56:40.425Z,14.17
2019-02-05T01:59:05.062Z,13.90
2019-02-05T02:01:34.707Z,13.90
2019-02-05T02:04:04.352Z,14.10
2019-02-05T02:06:33.979Z,14.40
2019-02-05T02:09:04.687Z,14.40
2019-02-05T02:11:34.219Z,14.93
2019-02-05T02:14:03.953Z,16.03
2019-02-05T02:16:33.495Z,15.73
2019-02-05T02:19:03.241Z,15.50
2019-02-05T02:21:32.916Z,17.47
2019-02-05T02:24:02.610Z,17.67
2019-02-05T02:26:32.147Z,16.60
2019-02-05T02:29:01.688Z,17.37
2019-02-05T02:31:31.336Z,17.07
2019-02-05T02:34:00.983Z,18.37
2019-02-05T02:36:30.673Z,18.33
2019-02-05T02:39:00.669Z,18.10
2019-02-05T02:41:30.480Z,18.47
2019-02-05T02:44:00.128Z,19.93
2019-02-05T02:46:29.802Z,21.00
2019-02-05T02:48:59.607Z,21.07
2019-02-05T02:51:29.263Z,21.30
2019-02-05T02:53:59.261Z,21.53
2019-02-05T02:56:28.807Z,21.40
2019-02-05T02:58:58.413Z,23.33
2019-02-05T03:01:28.107Z,22.60
2019-02-05T03:03:57.692Z,24.67
2019-02-05T03:06:27.232Z,27.97
2019-02-05T03:08:57.318Z,27.83
2019-02-05T03:11:26.995Z,21.80
2019-02-05T03:13:56.657Z,22.90
2019-02-05T03:16:26.257Z,34.63
2019-02-05T03:18:55.923Z,30.87
2019-02-05T03:21:25.561Z,35.17
2019-02-05T03:23:55.250Z,41.23
2019-02-05T03:26:25.087Z,32.50
2019-02-05T03:28:54.681Z,26.17
2019-02-05T03:31:24.370Z,26.07
2019-02-05T03:33:53.920Z,25.37
2019-02-05T03:36:23.597Z,23.80
2019-02-05T03:38:53.140Z,23.23
2019-02-05T03:41:22.770Z,23.07
2019-02-05T03:43:52.529Z,21.53
2019-02-05T03:46:22.085Z,24.70
2019-02-05T03:48:51.770Z,24.80
2019-02-05T03:52:17.250Z,22.47
2019-02-05T03:55:35.736Z,24.50
2019-02-05T03:58:29.806Z,22.27
2019-02-05T04:01:32.035Z,23.40
2019-02-05T04:04:38.690Z,22.90
2019-02-05T04:07:48.063Z,22.77
2019-02-05T04:11:16.999Z,23.10
2019-02-05T04:14:27.947Z,22.03
2019-02-05T04:17:14.787Z,21.20
2019-02-05T04:20:22.262Z,21.77
2019-02-05T04:23:45.312Z,20.00
2019-02-05T04:26:49.441Z,19.53
2019-02-05T04:29:55.555Z,21.40
2019-02-05T04:32:56.467Z,21.27
2019-02-05T04:36:08.983Z,23.10
2019-02-05T04:39:16.005Z,21.70
2019-02-05T04:42:22.537Z,23.10
2019-02-05T04:45:04.057Z,20.90
2019-02-05T04:48:03.860Z,23.37
2019-02-05T04:51:17.402Z,21.90
2019-02-05T04:54:04.052Z,21.13
2019-02-05T04:57:27.178Z,23.90
2019-02-05T05:00:32.861Z,24.27
2019-02-05T05:03:33.953Z,27.87
2019-02-05T05:06:50.556Z,25.27
2019-02-05T05:09:55.211Z,23.33
2019-02-05T05:12:25.415Z,23.90
2019-02-05T05:14:55.060Z,22.63
2019-02-05T05:17:24.647Z,24.87
2019-02-05T05:19:54.408Z,23.50
2019-02-05T05:22:23.960Z,31.47
2019-02-05T05:24:53.629Z,28.20
2019-02-05T05:27:25.340Z,27.53
2019-02-05T05:29:54.983Z,28.70
2019-02-05T05:32:24.588Z,30.47
2019-02-05T05:34:54.240Z,28.67
2019-02-05T05:37:24.048Z,28.70
2019-02-05T05:39:53.613Z,25.07
2019-02-05T05:42:23.683Z,26.77
2019-02-05T05:44:53.511Z,24.73
2019-02-05T05:47:23.165Z,27.20
2019-02-05T05:49:52.696Z,24.00
2019-02-05T05:52:22.408Z,26.03
2019-02-05T05:54:51.951Z,23.80
2019-02-05T05:57:21.490Z,21.27
2019-02-05T05:59:51.236Z,21.80
2019-02-05T06:02:21.535Z,24.00
2019-02-05T06:04:51.082Z,20.80
2019-02-05T06:07:20.688Z,20.57
2019-02-05T06:09:50.317Z,21.50
2019-02-05T06:12:19.960Z,20.53
2019-02-05T06:14:49.927Z,19.90
2019-02-05T06:17:19.621Z,21.00
2019-02-05T06:19:49.171Z,21.63
2019-02-05T06:22:18.807Z,23.80
2019-02-05T06:24:49.516Z,22.10
2019-02-05T06:27:19.053Z,20.13
2019-02-05T06:29:48.936Z,19.23
2019-02-05T06:32:18.698Z,21.93
2019-02-05T06:34:48.372Z,21.60
2019-02-05T06:37:18.281Z,22.83
2019-02-05T06:39:47.838Z,22.77
2019-02-05T06:42:17.445Z,23.30
2019-02-05T06:44:47.299Z,28.10
2019-02-05T06:47:17.024Z,25.00
2019-02-05T06:49:46.736Z,23.73
2019-02-05T06:52:16.429Z,26.00
2019-02-05T06:54:45.995Z,27.17
2019-02-05T06:57:15.647Z,26.13
2019-02-05T06:59:45.267Z,24.27
2019-02-05T07:02:14.864Z,23.17
2019-02-05T07:04:44.618Z,22.47
2019-02-05T07:07:14.184Z,23.23
2019-02-05T07:09:43.812Z,21.00
2019-02-05T07:12:13.599Z,21.40
2019-02-05T07:14:43.244Z,23.73
2019-02-05T07:17:13.134Z,25.70
2019-02-05T07:19:42.684Z,23.60
2019-02-05T07:22:12.240Z,24.10
2019-02-05T07:24:41.877Z,23.87
2019-02-05T07:27:11.564Z,24.23
2019-02-05T07:29:41.294Z,22.63
2019-02-05T07:32:11.112Z,23.17
2019-02-05T07:34:40.792Z,23.70
2019-02-05T07:37:10.339Z,23.93
2019-02-05T07:39:40.011Z,25.47
2019-02-05T07:42:09.647Z,26.13
2019-02-05T07:44:40.082Z,25.47
2019-02-05T07:47:09.713Z,24.03
2019-02-05T07:49:39.621Z,27.40
2019-02-05T07:52:09.181Z,27.63
2019-02-05T07:54:38.984Z,29.07
2019-02-05T07:57:08.541Z,28.10
2019-02-05T07:59:38.103Z,26.00
2019-02-05T08:02:07.762Z,24.80
2019-02-05T08:04:37.363Z,25.43
2019-02-05T08:07:07.663Z,25.03
2019-02-05T08:09:37.343Z,24.30
2019-02-05T08:12:06.983Z,25.00
2019-02-05T08:14:36.762Z,30.80
2019-02-05T08:17:06.285Z,28.30
2019-02-05T08:19:35.835Z,26.90
2019-02-05T08:22:05.590Z,27.17
2019-02-05T08:24:35.541Z,25.10
2019-02-05T08:27:05.103Z,31.20
2019-02-05T08:29:34.638Z,34.40
2019-02-05T08:32:04.437Z,31.10
2019-02-05T08:34:34.032Z,28.30
2019-02-05T08:37:03.569Z,28.47
2019-02-05T08:39:33.456Z,28.30
2019-02-05T08:42:03.177Z,23.80
2019-02-05T08:44:32.877Z,25.03
2019-02-05T08:47:02.412Z,25.00
2019-02-05T08:49:31.942Z,25.57
2019-02-05T08:52:01.738Z,25.50
2019-02-05T08:54:31.292Z,23.33
2019-02-05T08:57:01.113Z,25.93
2019-02-05T08:59:30.760Z,26.50
2019-02-05T09:02:00.443Z,27.00
2019-02-05T09:04:30.147Z,27.40
2019-02-05T09:06:59.729Z,26.43
2019-02-05T09:09:29.400Z,27.50
2019-02-05T09:11:59.103Z,28.13
2019-02-05T09:14:28.884Z,25.00
2019-02-05T09:16:58.423Z,27.63
2019-02-05T09:19:28.123Z,28.07
2019-02-05T09:21:57.707Z,30.73
2019-02-05T09:24:27.272Z,30.10
2019-02-05T09:26:56.923Z,27.57
2019-02-05T09:29:33.347Z,27.83
2019-02-05T09:31:58.252Z,25.30
2019-02-05T09:34:27.835Z,27.47
2019-02-05T09:36:57.451Z,23.17
2019-02-05T09:39:27.060Z,18.60
2019-02-05T09:41:56.716Z,18.23
2019-02-05T09:44:26.550Z,18.27
2019-02-05T09:46:56.099Z,19.20
2019-02-05T09:49:25.894Z,20.37
2019-02-05T09:51:55.465Z,19.57
2019-02-05T09:54:25.087Z,21.40
2019-02-05T09:56:54.689Z,20.43
2019-02-05T09:59:24.287Z,20.70
2019-02-05T10:01:53.915Z,22.37
2019-02-05T10:04:23.628Z,22.03
2019-02-05T10:06:53.280Z,22.97
2019-02-05T10:09:22.824Z,20.20
2019-02-05T10:11:52.417Z,20.70
2019-02-05T10:14:22.262Z,20.33
2019-02-05T10:16:52.283Z,22.33
2019-02-05T10:19:21.968Z,22.57
2019-02-05T10:21:51.680Z,20.30
2019-02-05T10:24:21.320Z,21.60
2019-02-05T10:26:50.893Z,22.23
2019-02-05T10:29:20.558Z,22.00
2019-02-05T10:31:50.230Z,21.43
2019-02-05T10:34:19.926Z,23.30
2019-02-05T10:36:49.554Z,22.63
2019-02-05T10:39:19.118Z,22.13
2019-02-05T10:41:48.876Z,22.17
2019-02-05T10:44:18.414Z,20.60
2019-02-05T10:46:48.162Z,20.97
2019-02-05T10:49:17.970Z,22.77
2019-02-05T10:51:47.610Z,23.93
2019-02-05T10:54:17.296Z,23.00
2019-02-05T10:56:47.001Z,22.77
2019-02-05T10:59:16.554Z,22.47
2019-02-05T11:01:46.089Z,22.50
2019-02-05T11:04:16.114Z,21.93
2019-02-05T11:06:45.731Z,21.53
2019-02-05T11:09:15.310Z,23.77
2019-02-05T11:11:44.992Z,20.80
2019-02-05T11:14:14.766Z,19.97
2019-02-05T11:16:44.297Z,19.20
2019-02-05T11:19:13.980Z,19.20
2019-02-05T11:21:43.650Z,18.57
2019-02-05T11:24:13.236Z,19.93
2019-02-05T11:26:42.795Z,20.00
2019-02-05T11:29:12.560Z,19.53
2019-02-05T11:31:42.081Z,20.60
2019-02-05T11:34:11.734Z,18.97
2019-02-05T11:36:41.442Z,21.33
2019-02-05T11:39:20.053Z,19.17
2019-02-05T11:41:49.704Z,18.27
2019-02-05T11:44:19.375Z,20.80
2019-02-05T11:46:48.980Z,18.73
2019-02-05T11:49:18.629Z,21.77
2019-02-05T11:51:48.299Z,19.90
2019-02-05T11:54:17.941Z,19.67
2019-02-05T11:56:47.715Z,20.37
2019-02-05T11:59:17.231Z,20.40
2019-02-05T12:01:46.839Z,21.10
2019-02-05T12:04:16.537Z,20.80
2019-02-05T12:06:46.489Z,21.37
2019-02-05T12:09:22.332Z,19.10
2019-02-05T12:11:52.029Z,20.03
2019-02-05T12:14:21.836Z,24.80
2019-02-05T12:16:51.402Z,20.33
2019-02-05T12:19:21.047Z,19.87
2019-02-05T12:21:50.999Z,19.83
2019-02-05T12:24:20.574Z,18.73
2019-02-05T12:26:50.177Z,18.70
2019-02-05T12:29:19.898Z,20.37
2019-02-05T12:31:49.485Z,20.10
2019-02-05T12:34:19.140Z,20.43
2019-02-05T12:36:48.689Z,18.67
2019-02-05T12:39:21.118Z,18.33
2019-02-05T12:41:50.652Z,19.10
2019-02-05T12:44:20.182Z,18.70
2019-02-05T12:46:49.804Z,19.13
2019-02-05T12:49:19.403Z,17.27
2019-02-05T12:51:48.917Z,17.77
2019-02-05T12:54:18.564Z,16.83
2019-02-05T12:56:48.085Z,17.30
2019-02-05T12:59:17.671Z,17.47
2019-02-05T13:01:47.284Z,18.60
2019-02-05T13:04:16.890Z,18.70
2019-02-05T13:06:46.457Z,19.93
2019-02-05T13:09:16.332Z,19.90
2019-02-05T13:11:45.881Z,18.57
2019-02-05T13:14:15.515Z,17.10
2019-02-05T13:16:45.841Z,17.87
2019-02-05T13:19:15.456Z,17.47
2019-02-05T13:21:45.022Z,18.30
2019-02-05T13:24:16.692Z,19.27
2019-02-05T13:26:45.972Z,21.37
2019-02-05T13:29:15.991Z,19.50
2019-02-05T13:31:45.510Z,20.13
2019-02-05T13:34:15.218Z,20.93
2019-02-05T13:36:45.453Z,18.40
2019-02-05T13:39:15.078Z,19.83
2019-02-05T13:41:44.715Z,18.70
2019-02-05T13:44:14.244Z,21.80
2019-02-05T13:46:43.793Z,24.10
2019-02-05T13:49:13.356Z,24.60
2019-02-05T13:51:42.989Z,26.87
2019-02-05T13:54:12.694Z,29.83
2019-02-05T13:56:42.244Z,29.50
2019-02-05T13:59:11.795Z,32.40
2019-02-05T14:01:44.406Z,37.00
2019-02-05T14:04:12.760Z,31.47
2019-02-05T14:06:42.407Z,30.53
2019-02-05T14:09:13.727Z,34.47
2019-02-05T14:11:43.295Z,44.87
2019-02-05T14:14:12.926Z,31.13
2019-02-05T14:16:42.552Z,33.60
2019-02-05T14:19:12.084Z,32.30
2019-02-05T14:21:42.160Z,35.50
2019-02-05T14:24:11.718Z,31.50
2019-02-05T14:26:41.369Z,34.50
2019-02-05T14:29:10.923Z,36.10
2019-02-05T14:31:40.691Z,36.17
2019-02-05T14:34:10.567Z,34.07
2019-02-05T14:36:40.152Z,35.97
2019-02-05T14:39:10.536Z,35.93
2019-02-05T14:41:40.108Z,36.93
2019-02-05T14:44:09.686Z,35.83
2019-02-05T14:46:39.268Z,43.40
2019-02-05T14:49:09.186Z,37.73
2019-02-05T14:51:38.887Z,36.40
2019-02-05T14:54:08.508Z,39.40
2019-02-05T14:56:38.111Z,36.50
2019-02-05T14:59:07.829Z,34.80
2019-02-05T15:01:43.165Z,34.50
2019-02-05T15:04:08.883Z,32.00
2019-02-05T15:06:38.474Z,28.43
2019-02-05T15:09:08.501Z,30.03
2019-02-05T15:11:38.214Z,33.37
2019-02-05T15:14:07.731Z,37.03
2019-02-05T15:16:37.324Z,31.47
2019-02-05T15:19:06.925Z,31.30
2019-02-05T15:21:38.693Z,32.80
2019-02-05T15:24:08.218Z,31.83
2019-02-05T15:26:38.043Z,34.60
2019-02-05T15:29:07.723Z,34.30
2019-02-05T15:31:37.879Z,35.97
2019-02-05T15:34:22.986Z,39.70
2019-02-05T15:36:52.684Z,34.67
2019-02-05T15:39:22.220Z,40.07
2019-02-05T15:41:51.777Z,44.67
2019-02-05T15:44:21.341Z,41.50
2019-02-05T15:46:50.897Z,45.70
2019-02-05T15:49:21.692Z,42.97
2019-02-05T15:51:51.325Z,46.97
2019-02-05T15:54:20.854Z,44.80
2019-02-05T15:56:50.809Z,39.50
2019-02-05T15:59:20.511Z,33.80
2019-02-05T16:01:50.044Z,40.80
2019-02-05T16:04:19.667Z,41.87
2019-02-05T16:06:49.344Z,35.43
2019-02-05T16:09:18.977Z,38.10
2019-02-05T16:11:48.902Z,37.60
2019-02-05T16:14:18.573Z,41.30
2019-02-05T16:16:48.136Z,42.13
2019-02-05T16:19:17.791Z,40.90
2019-02-05T16:21:47.330Z,34.30
2019-02-05T16:24:16.895Z,33.07
2019-02-05T16:26:46.784Z,34.73
2019-02-05T16:29:16.465Z,36.17
2019-02-05T16:31:46.046Z,35.93
2019-02-05T16:34:15.851Z,35.70
2019-02-05T16:36:48.483Z,35.73
2019-02-05T16:39:16.756Z,37.27
2019-02-05T16:41:46.926Z,39.40
2019-02-05T16:44:16.506Z,36.67
2019-02-05T16:46:46.131Z,35.83
2019-02-05T16:49:15.769Z,35.83
2019-02-05T16:51:45.395Z,37.90
2019-02-05T16:54:14.934Z,37.53
2019-02-05T16:56:44.898Z,39.37
2019-02-05T16:59:14.460Z,38.10
2019-02-05T17:01:44.108Z,41.90
2019-02-05T17:04:13.635Z,38.57
2019-02-05T17:06:43.235Z,36.03
2019-02-05T17:09:18.067Z,35.97
2019-02-05T17:11:47.703Z,40.10
2019-02-05T17:14:17.289Z,38.00
2019-02-05T17:16:46.938Z,37.10
2019-02-05T17:19:16.484Z,40.43
2019-02-05T17:21:46.099Z,39.87
2019-02-05T17:24:16.020Z,39.33
2019-02-05T17:26:45.582Z,39.70
2019-02-05T17:29:15.291Z,33.33
2019-02-05T17:31:44.846Z,34.73
2019-02-05T17:34:14.528Z,35.67
2019-02-05T17:36:44.083Z,35.27
2019-02-05T17:39:14.387Z,33.73
2019-02-05T17:41:43.978Z,37.10
2019-02-05T17:44:13.544Z,39.30
2019-02-05T17:46:43.099Z,38.00
2019-02-05T17:49:12.628Z,47.90
2019-02-05T17:51:42.300Z,46.77
2019-02-05T17:54:12.029Z,57.00
2019-02-05T17:56:41.598Z,50.10
2019-02-05T17:59:11.152Z,53.40
2019-02-05T18:01:40.714Z,70.17
2019-02-05T18:04:10.419Z,50.37
2019-02-05T18:06:39.972Z,49.03
2019-02-05T18:09:09.910Z,55.30
2019-02-05T18:11:39.634Z,42.90
2019-02-05T18:14:09.178Z,43.27
2019-02-05T18:16:38.722Z,44.10
2019-02-05T18:19:08.275Z,44.97
2019-02-05T18:21:37.872Z,45.63
2019-02-05T18:24:07.467Z,34.43
2019-02-05T18:26:37.110Z,39.77
2019-02-05T18:29:06.807Z,39.50
2019-02-05T18:31:36.407Z,30.60
2019-02-05T18:34:06.069Z,32.50
2019-02-05T18:36:35.621Z,35.27
2019-02-05T18:39:08.401Z,38.20
2019-02-05T18:41:38.147Z,39.07
2019-02-05T18:44:07.724Z,38.63
2019-02-05T18:46:37.269Z,39.07
2019-02-05T18:49:07.380Z,39.87
2019-02-05T18:51:38.322Z,32.60
2019-02-05T18:54:07.896Z,32.97
2019-02-05T18:56:37.475Z,33.57
2019-02-05T18:59:07.154Z,36.63
2019-02-05T19:01:36.727Z,38.60
2019-02-05T19:04:06.439Z,40.37
2019-02-05T19:06:36.347Z,43.20
2019-02-05T19:09:12.053Z,41.90
2019-02-05T19:11:41.702Z,35.27
2019-02-05T19:14:11.410Z,36.73
2019-02-05T19:16:41.089Z,35.50
2019-02-05T19:19:15.012Z,35.77
2019-02-05T19:21:42.215Z,39.27
2019-02-05T19:24:31.110Z,37.50
2019-02-05T19:27:00.765Z,36.43
2019-02-05T19:29:30.414Z,35.83
2019-02-05T19:32:00.568Z,37.67
2019-02-05T19:34:30.132Z,38.47
2019-02-05T19:36:59.843Z,33.20
2019-02-05T19:39:29.506Z,33.83
2019-02-05T19:41:59.229Z,32.67
2019-02-05T19:44:29.065Z,33.40
2019-02-05T19:47:04.581Z,29.30
2019-02-05T19:49:38.805Z,34.67
2019-02-05T19:52:08.613Z,33.50
2019-02-05T19:54:38.247Z,36.00
2019-02-05T19:57:10.688Z,33.63
2019-02-05T19:59:40.622Z,34.77
2019-02-05T20:02:10.341Z,38.73
2019-02-05T20:04:39.959Z,37.60
2019-02-05T20:07:09.742Z,36.30
2019-02-05T20:09:39.335Z,30.13
2019-02-05T20:12:09.075Z,39.90
2019-02-05T20:14:38.665Z,70.73
2019-02-05T20:17:09.012Z,55.50
2019-02-05T20:19:38.565Z,36.60
2019-02-05T20:22:08.223Z,34.73
2019-02-05T20:24:37.904Z,39.00
2019-02-05T20:27:07.555Z,34.60
2019-02-05T20:29:37.100Z,35.10
2019-02-05T20:32:07.146Z,30.43
2019-02-05T20:34:36.694Z,34.00
2019-02-05T20:37:06.284Z,35.83
2019-02-05T20:39:35.998Z,36.30
2019-02-05T20:42:05.616Z,35.20
2019-02-05T20:44:35.190Z,31.40
2019-02-05T20:47:05.317Z,34.67
2019-02-05T20:49:34.917Z,32.50
2019-02-05T20:52:04.510Z,30.40
2019-02-05T20:54:34.160Z,30.07
2019-02-05T20:57:03.852Z,28.40
2019-02-05T20:59:33.533Z,28.47
2019-02-05T21:02:03.181Z,25.50
2019-02-05T21:04:35.399Z,28.60
2019-02-05T21:07:04.352Z,28.97
2019-02-05T21:09:33.929Z,30.30
2019-02-05T21:12:03.518Z,37.70
2019-02-05T21:14:33.161Z,34.60
2019-02-05T21:17:02.719Z,31.50
2019-02-05T21:19:32.742Z,29.43
2019-02-05T21:22:02.280Z,31.50
2019-02-05T21:24:32.013Z,28.20
2019-02-05T21:27:01.690Z,26.53
2019-02-05T21:29:31.235Z,34.37
2019-02-05T21:32:00.823Z,37.20
2019-02-05T21:34:30.739Z,30.47
2019-02-05T21:37:00.332Z,30.50
2019-02-05T21:39:30.052Z,26.10
2019-02-05T21:41:59.764Z,27.70
2019-02-05T21:44:29.409Z,23.53
2019-02-05T21:46:59.088Z,23.00
2019-02-05T21:49:29.080Z,24.50
2019-02-05T21:51:58.695Z,25.40
2019-02-05T21:54:28.385Z,27.23
2019-02-05T21:56:58.134Z,23.27
2019-02-05T21:59:27.719Z,24.57
2019-02-05T22:01:57.349Z,26.30
2019-02-05T22:04:27.883Z,24.60
2019-02-05T22:06:58.153Z,23.40
2019-02-05T22:09:27.895Z,23.77
2019-02-05T22:11:57.483Z,22.83
2019-02-05T22:14:27.122Z,23.33
2019-02-05T22:16:57.240Z,23.43
2019-02-05T22:19:27.057Z,22.47
2019-02-05T22:21:56.633Z,22.90
2019-02-05T22:24:26.168Z,23.60
2019-02-05T22:26:55.848Z,23.77
2019-02-05T22:29:25.539Z,21.80
2019-02-05T22:31:55.266Z,22.90
2019-02-05T22:34:25.101Z,21.90
2019-02-05T22:36:54.817Z,23.43
2019-02-05T22:39:24.370Z,23.33
2019-02-05T22:41:53.919Z,21.80
2019-02-05T22:44:23.518Z,21.97
2019-02-05T22:46:53.428Z,22.77
2019-02-05T22:49:23.167Z,23.73
2019-02-05T22:51:53.158Z,22.17
2019-02-05T22:54:22.780Z,20.50
2019-02-05T22:56:52.473Z,19.90
2019-02-05T22:59:22.243Z,21.30
2019-02-05T23:01:57.308Z,19.53
2019-02-05T23:04:50.363Z,21.30
2019-02-05T23:07:19.366Z,20.10
2019-02-05T23:10:16.347Z,21.03
2019-02-05T23:12:52.802Z,19.50
2019-02-05T23:15:24.279Z,19.10
2019-02-05T23:17:54.082Z,19.80
2019-02-05T23:20:24.196Z,18.43
2019-02-05T23:22:56.874Z,18.27
2019-02-05T23:25:25.256Z,18.53
2019-02-05T23:27:54.807Z,18.13
2019-02-05T23:30:28.486Z,20.60
2019-02-05T23:32:58.379Z,19.67
2019-02-05T23:35:28.399Z,20.73
2019-02-05T23:37:57.956Z,18.43
2019-02-05T23:40:27.622Z,17.50
2019-02-05T23:42:57.251Z,18.83
2019-02-05T23:45:26.946Z,17.63
2019-02-05T23:47:56.476Z,18.17
2019-02-05T23:50:26.325Z,17.30
2019-02-05T23:52:55.959Z,15.63
2019-02-05T23:55:25.555Z,15.77
2019-02-05T23:57:55.146Z,15.10
